sensor_id;sensor_type;location;lat;lon;timestamp;temperature;humidity
16929;DHT22;8581;47.334;11.190;2023-05-10T00:01:16;10.40;99.90
16929;DHT22;8581;47.334;11.190;2023-05-10T00:03:56;10.50;99.90
16929;DHT22;8581;47.334;11.190;2023-05-10T00:06:32;10.50;99.90
16929;DHT22;8581;47.334;11.190;2023-05-10T00:12:01;10.40;99.90
16929;DHT22;8581;47.334;11.190;2023-05-10T00:14:33;10.40;99.90
16929;DHT22;8581;47.334;11.190;2023-05-10T00:17:05;10.40;99.90
16929;DHT22;8581;47.334;11.190;2023-05-10T00:19:36;10.40;99.90
16929;DHT22;8581;47.334;11.190;2023-05-10T00:22:08;10.50;99.90
16929;DHT22;8581;47.334;11.190;2023-05-10T00:24:39;10.60;99.90
16929;DHT22;8581;47.334;11.190;2023-05-10T00:27:11;10.70;99.90
16929;DHT22;8581;47.334;11.190;2023-05-10T00:29:43;11.00;99.90
16929;DHT22;8581;47.334;11.190;2023-05-10T00:32:14;11.10;99.90
16929;DHT22;8581;47.334;11.190;2023-05-10T00:34:46;10.80;99.90
16929;DHT22;8581;47.334;11.190;2023-05-10T00:37:17;10.60;99.90
16929;DHT22;8581;47.334;11.190;2023-05-10T00:39:49;10.70;99.90
16929;DHT22;8581;47.334;11.190;2023-05-10T00:42:21;10.60;99.90
16929;DHT22;8581;47.334;11.190;2023-05-10T00:44:52;10.40;99.90
16929;DHT22;8581;47.334;11.190;2023-05-10T00:47:24;10.50;99.90
16929;DHT22;8581;47.334;11.190;2023-05-10T00:49:55;10.70;99.90
16929;DHT22;8581;47.334;11.190;2023-05-10T00:52:28;10.70;99.90
16929;DHT22;8581;47.334;11.190;2023-05-10T00:54:59;10.70;99.90
16929;DHT22;8581;47.334;11.190;2023-05-10T00:57:30;10.90;99.90
16929;DHT22;8581;47.334;11.190;2023-05-10T01:00:03;10.90;99.90
16929;DHT22;8581;47.334;11.190;2023-05-10T01:02:34;10.90;99.90
16929;DHT22;8581;47.334;11.190;2023-05-10T01:05:06;10.80;99.90
16929;DHT22;8581;47.334;11.190;2023-05-10T01:07:39;10.70;99.90
16929;DHT22;8581;47.334;11.190;2023-05-10T01:10:11;10.70;99.90
16929;DHT22;8581;47.334;11.190;2023-05-10T01:12:43;10.70;99.90
16929;DHT22;8581;47.334;11.190;2023-05-10T01:15:14;10.60;99.90
16929;DHT22;8581;47.334;11.190;2023-05-10T01:17:46;10.70;99.90
16929;DHT22;8581;47.334;11.190;2023-05-10T01:20:18;10.80;99.90
16929;DHT22;8581;47.334;11.190;2023-05-10T01:26:13;11.00;99.90
16929;DHT22;8581;47.334;11.190;2023-05-10T01:28:54;11.10;99.90
16929;DHT22;8581;47.334;11.190;2023-05-10T01:31:37;11.10;99.90
16929;DHT22;8581;47.334;11.190;2023-05-10T01:34:20;11.00;99.90
16929;DHT22;8581;47.334;11.190;2023-05-10T01:36:52;11.00;99.90
16929;DHT22;8581;47.334;11.190;2023-05-10T01:39:24;10.90;99.90
16929;DHT22;8581;47.334;11.190;2023-05-10T01:42:00;11.00;99.90
16929;DHT22;8581;47.334;11.190;2023-05-10T01:44:37;10.90;99.90
16929;DHT22;8581;47.334;11.190;2023-05-10T01:47:12;10.70;99.90
16929;DHT22;8581;47.334;11.190;2023-05-10T01:49:45;10.60;99.90
16929;DHT22;8581;47.334;11.190;2023-05-10T01:52:16;10.50;99.90
16929;DHT22;8581;47.334;11.190;2023-05-10T01:54:51;10.50;99.90
16929;DHT22;8581;47.334;11.190;2023-05-10T01:57:21;10.60;99.90
16929;DHT22;8581;47.334;11.190;2023-05-10T01:59:53;10.60;99.90
16929;DHT22;8581;47.334;11.190;2023-05-10T02:02:24;10.90;99.90
16929;DHT22;8581;47.334;11.190;2023-05-10T02:04:56;11.00;99.90
16929;DHT22;8581;47.334;11.190;2023-05-10T02:07:27;11.00;99.90
16929;DHT22;8581;47.334;11.190;2023-05-10T02:09:59;11.10;99.90
16929;DHT22;8581;47.334;11.190;2023-05-10T02:12:31;10.90;99.90
16929;DHT22;8581;47.334;11.190;2023-05-10T02:15:04;10.80;99.90
16929;DHT22;8581;47.334;11.190;2023-05-10T02:17:35;10.80;99.90
16929;DHT22;8581;47.334;11.190;2023-05-10T02:20:07;10.80;99.90
16929;DHT22;8581;47.334;11.190;2023-05-10T02:22:38;10.80;99.90
16929;DHT22;8581;47.334;11.190;2023-05-10T02:25:11;10.60;99.90
16929;DHT22;8581;47.334;11.190;2023-05-10T02:27:44;10.60;99.90
16929;DHT22;8581;47.334;11.190;2023-05-10T02:30:16;10.80;99.90
16929;DHT22;8581;47.334;11.190;2023-05-10T02:32:47;10.80;99.90
16929;DHT22;8581;47.334;11.190;2023-05-10T02:35:19;10.80;99.90
16929;DHT22;8581;47.334;11.190;2023-05-10T02:37:51;10.80;99.90
16929;DHT22;8581;47.334;11.190;2023-05-10T02:40:22;10.80;99.90
16929;DHT22;8581;47.334;11.190;2023-05-10T02:42:54;10.90;99.90
16929;DHT22;8581;47.334;11.190;2023-05-10T02:45:27;11.10;99.90
16929;DHT22;8581;47.334;11.190;2023-05-10T02:47:57;11.00;99.90
16929;DHT22;8581;47.334;11.190;2023-05-10T02:50:29;10.90;99.90
16929;DHT22;8581;47.334;11.190;2023-05-10T02:53:01;10.80;99.90
16929;DHT22;8581;47.334;11.190;2023-05-10T02:55:33;10.70;99.90
16929;DHT22;8581;47.334;11.190;2023-05-10T02:58:04;10.70;99.90
16929;DHT22;8581;47.334;11.190;2023-05-10T03:00:36;10.60;99.90
16929;DHT22;8581;47.334;11.190;2023-05-10T03:03:07;10.50;99.90
16929;DHT22;8581;47.334;11.190;2023-05-10T03:05:39;10.40;99.90
16929;DHT22;8581;47.334;11.190;2023-05-10T03:08:10;10.20;99.90
16929;DHT22;8581;47.334;11.190;2023-05-10T03:10:47;10.10;99.90
16929;DHT22;8581;47.334;11.190;2023-05-10T03:13:20;10.20;99.90
16929;DHT22;8581;47.334;11.190;2023-05-10T03:18:33;10.30;99.90
16929;DHT22;8581;47.334;11.190;2023-05-10T03:21:03;10.40;99.90
16929;DHT22;8581;47.334;11.190;2023-05-10T03:23:34;10.50;99.90
16929;DHT22;8581;47.334;11.190;2023-05-10T03:26:05;10.40;99.90
16929;DHT22;8581;47.334;11.190;2023-05-10T03:28:36;10.40;99.90
16929;DHT22;8581;47.334;11.190;2023-05-10T03:31:08;10.60;99.90
16929;DHT22;8581;47.334;11.190;2023-05-10T03:33:47;10.70;99.90
16929;DHT22;8581;47.334;11.190;2023-05-10T03:36:18;10.70;99.90
16929;DHT22;8581;47.334;11.190;2023-05-10T03:38:50;10.60;99.90
16929;DHT22;8581;47.334;11.190;2023-05-10T03:41:21;10.50;99.90
16929;DHT22;8581;47.334;11.190;2023-05-10T03:43:53;10.50;99.90
16929;DHT22;8581;47.334;11.190;2023-05-10T03:46:25;10.80;99.90
16929;DHT22;8581;47.334;11.190;2023-05-10T03:48:56;10.70;99.90
16929;DHT22;8581;47.334;11.190;2023-05-10T03:51:28;10.70;99.90
16929;DHT22;8581;47.334;11.190;2023-05-10T03:53:59;10.90;99.90
16929;DHT22;8581;47.334;11.190;2023-05-10T03:56:31;10.70;99.90
16929;DHT22;8581;47.334;11.190;2023-05-10T03:59:03;10.70;99.90
16929;DHT22;8581;47.334;11.190;2023-05-10T04:01:34;10.60;99.90
16929;DHT22;8581;47.334;11.190;2023-05-10T04:04:06;10.50;99.90
16929;DHT22;8581;47.334;11.190;2023-05-10T04:06:37;10.50;99.90
16929;DHT22;8581;47.334;11.190;2023-05-10T04:09:09;10.60;99.90
16929;DHT22;8581;47.334;11.190;2023-05-10T04:11:41;10.50;99.90
16929;DHT22;8581;47.334;11.190;2023-05-10T04:14:12;10.60;99.90
16929;DHT22;8581;47.334;11.190;2023-05-10T04:16:44;10.70;99.90
16929;DHT22;8581;47.334;11.190;2023-05-10T04:19:15;10.60;99.90
16929;DHT22;8581;47.334;11.190;2023-05-10T04:21:47;10.50;99.90
16929;DHT22;8581;47.334;11.190;2023-05-10T04:24:19;10.60;99.90
16929;DHT22;8581;47.334;11.190;2023-05-10T04:26:51;10.60;99.90
16929;DHT22;8581;47.334;11.190;2023-05-10T04:29:22;10.70;99.90
16929;DHT22;8581;47.334;11.190;2023-05-10T04:31:54;10.70;99.90
16929;DHT22;8581;47.334;11.190;2023-05-10T04:34:25;10.80;99.90
16929;DHT22;8581;47.334;11.190;2023-05-10T04:36:57;10.60;99.90
16929;DHT22;8581;47.334;11.190;2023-05-10T04:39:28;10.60;99.90
16929;DHT22;8581;47.334;11.190;2023-05-10T04:42:01;10.50;99.90
16929;DHT22;8581;47.334;11.190;2023-05-10T04:44:32;10.20;99.90
16929;DHT22;8581;47.334;11.190;2023-05-10T04:47:04;10.30;99.90
16929;DHT22;8581;47.334;11.190;2023-05-10T04:49:35;10.50;99.90
16929;DHT22;8581;47.334;11.190;2023-05-10T04:52:07;10.60;99.90
16929;DHT22;8581;47.334;11.190;2023-05-10T04:54:39;10.70;99.90
16929;DHT22;8581;47.334;11.190;2023-05-10T04:57:10;10.60;99.90
16929;DHT22;8581;47.334;11.190;2023-05-10T04:59:42;10.60;99.90
16929;DHT22;8581;47.334;11.190;2023-05-10T05:02:14;10.70;99.90
16929;DHT22;8581;47.334;11.190;2023-05-10T05:04:46;10.60;99.90
16929;DHT22;8581;47.334;11.190;2023-05-10T05:07:17;10.50;99.90
16929;DHT22;8581;47.334;11.190;2023-05-10T05:09:49;10.40;99.90
16929;DHT22;8581;47.334;11.190;2023-05-10T05:12:20;10.40;99.90
16929;DHT22;8581;47.334;11.190;2023-05-10T05:14:52;10.60;99.90
16929;DHT22;8581;47.334;11.190;2023-05-10T05:17:24;10.70;99.90
16929;DHT22;8581;47.334;11.190;2023-05-10T05:19:55;10.30;99.90
16929;DHT22;8581;47.334;11.190;2023-05-10T05:22:27;10.20;99.90
16929;DHT22;8581;47.334;11.190;2023-05-10T05:24:58;10.00;99.90
16929;DHT22;8581;47.334;11.190;2023-05-10T05:27:30;10.20;99.90
16929;DHT22;8581;47.334;11.190;2023-05-10T05:30:02;10.30;99.90
16929;DHT22;8581;47.334;11.190;2023-05-10T05:32:34;10.60;99.90
16929;DHT22;8581;47.334;11.190;2023-05-10T05:35:06;10.70;99.90
16929;DHT22;8581;47.334;11.190;2023-05-10T05:37:38;10.80;99.90
16929;DHT22;8581;47.334;11.190;2023-05-10T05:40:13;10.70;99.90
16929;DHT22;8581;47.334;11.190;2023-05-10T05:42:42;10.60;99.90
16929;DHT22;8581;47.334;11.190;2023-05-10T05:45:13;10.40;99.90
16929;DHT22;8581;47.334;11.190;2023-05-10T05:47:45;10.40;99.90
16929;DHT22;8581;47.334;11.190;2023-05-10T05:50:17;10.50;99.90
16929;DHT22;8581;47.334;11.190;2023-05-10T05:52:48;10.60;99.90
16929;DHT22;8581;47.334;11.190;2023-05-10T05:55:20;10.60;99.90
16929;DHT22;8581;47.334;11.190;2023-05-10T05:57:51;10.70;99.90
16929;DHT22;8581;47.334;11.190;2023-05-10T06:00:23;10.70;99.90
16929;DHT22;8581;47.334;11.190;2023-05-10T06:02:55;10.40;99.90
16929;DHT22;8581;47.334;11.190;2023-05-10T06:05:26;10.20;99.90
16929;DHT22;8581;47.334;11.190;2023-05-10T06:07:59;10.00;99.90
16929;DHT22;8581;47.334;11.190;2023-05-10T06:10:29;10.20;99.90
16929;DHT22;8581;47.334;11.190;2023-05-10T06:13:01;10.30;99.90
16929;DHT22;8581;47.334;11.190;2023-05-10T06:15:33;10.50;99.90
16929;DHT22;8581;47.334;11.190;2023-05-10T06:18:04;10.50;99.90
16929;DHT22;8581;47.334;11.190;2023-05-10T06:20:36;10.60;99.90
16929;DHT22;8581;47.334;11.190;2023-05-10T06:23:15;10.40;99.90
16929;DHT22;8581;47.334;11.190;2023-05-10T06:25:47;10.30;99.90
16929;DHT22;8581;47.334;11.190;2023-05-10T06:28:19;10.30;99.90
16929;DHT22;8581;47.334;11.190;2023-05-10T06:30:50;10.30;99.90
16929;DHT22;8581;47.334;11.190;2023-05-10T06:33:22;10.50;99.90
16929;DHT22;8581;47.334;11.190;2023-05-10T06:35:53;10.80;99.90
16929;DHT22;8581;47.334;11.190;2023-05-10T06:38:25;10.80;99.90
16929;DHT22;8581;47.334;11.190;2023-05-10T06:40:57;10.80;99.90
16929;DHT22;8581;47.334;11.190;2023-05-10T06:43:28;10.80;99.90
16929;DHT22;8581;47.334;11.190;2023-05-10T06:46:00;11.00;99.90
16929;DHT22;8581;47.334;11.190;2023-05-10T06:48:32;11.00;99.90
16929;DHT22;8581;47.334;11.190;2023-05-10T06:51:03;11.00;99.90
16929;DHT22;8581;47.334;11.190;2023-05-10T06:53:35;11.00;99.90
16929;DHT22;8581;47.334;11.190;2023-05-10T06:56:06;11.00;99.90
16929;DHT22;8581;47.334;11.190;2023-05-10T06:58:38;10.90;99.90
16929;DHT22;8581;47.334;11.190;2023-05-10T07:01:10;11.00;99.90
16929;DHT22;8581;47.334;11.190;2023-05-10T07:03:41;11.40;99.90
16929;DHT22;8581;47.334;11.190;2023-05-10T07:06:13;11.20;99.90
16929;DHT22;8581;47.334;11.190;2023-05-10T07:08:44;10.90;99.90
16929;DHT22;8581;47.334;11.190;2023-05-10T07:11:16;11.00;99.90
16929;DHT22;8581;47.334;11.190;2023-05-10T07:13:48;11.00;99.90
16929;DHT22;8581;47.334;11.190;2023-05-10T07:16:19;11.10;99.90
16929;DHT22;8581;47.334;11.190;2023-05-10T07:18:51;11.20;99.90
16929;DHT22;8581;47.334;11.190;2023-05-10T07:21:22;11.40;99.90
16929;DHT22;8581;47.334;11.190;2023-05-10T07:23:55;11.20;99.90
16929;DHT22;8581;47.334;11.190;2023-05-10T07:26:26;11.00;99.90
16929;DHT22;8581;47.334;11.190;2023-05-10T07:28:58;11.30;99.90
16929;DHT22;8581;47.334;11.190;2023-05-10T07:31:29;11.40;99.90
16929;DHT22;8581;47.334;11.190;2023-05-10T07:34:01;11.30;99.90
16929;DHT22;8581;47.334;11.190;2023-05-10T07:36:33;11.20;99.90
16929;DHT22;8581;47.334;11.190;2023-05-10T07:39:04;11.20;99.90
16929;DHT22;8581;47.334;11.190;2023-05-10T07:41:36;11.30;99.90
16929;DHT22;8581;47.334;11.190;2023-05-10T07:44:08;11.00;99.90
16929;DHT22;8581;47.334;11.190;2023-05-10T07:46:40;11.00;99.90
16929;DHT22;8581;47.334;11.190;2023-05-10T07:49:11;10.90;99.90
16929;DHT22;8581;47.334;11.190;2023-05-10T07:51:43;10.80;99.90
16929;DHT22;8581;47.334;11.190;2023-05-10T07:54:15;10.60;99.90
16929;DHT22;8581;47.334;11.190;2023-05-10T07:56:46;10.50;99.90
16929;DHT22;8581;47.334;11.190;2023-05-10T07:59:18;10.50;99.90
16929;DHT22;8581;47.334;11.190;2023-05-10T08:01:49;10.40;99.90
16929;DHT22;8581;47.334;11.190;2023-05-10T08:04:21;10.70;99.90
16929;DHT22;8581;47.334;11.190;2023-05-10T08:06:53;10.90;99.90
16929;DHT22;8581;47.334;11.190;2023-05-10T08:09:24;10.80;99.90
16929;DHT22;8581;47.334;11.190;2023-05-10T08:11:56;10.90;99.90
16929;DHT22;8581;47.334;11.190;2023-05-10T08:14:28;10.90;99.90
16929;DHT22;8581;47.334;11.190;2023-05-10T08:17:01;10.90;99.90
16929;DHT22;8581;47.334;11.190;2023-05-10T08:19:32;10.80;99.90
16929;DHT22;8581;47.334;11.190;2023-05-10T08:22:05;10.90;99.90
16929;DHT22;8581;47.334;11.190;2023-05-10T08:24:37;10.90;99.90
16929;DHT22;8581;47.334;11.190;2023-05-10T08:27:09;10.80;99.90
16929;DHT22;8581;47.334;11.190;2023-05-10T08:29:41;11.00;99.90
16929;DHT22;8581;47.334;11.190;2023-05-10T08:32:17;11.10;99.90
16929;DHT22;8581;47.334;11.190;2023-05-10T08:34:49;11.00;99.90
16929;DHT22;8581;47.334;11.190;2023-05-10T08:37:20;11.00;99.90
16929;DHT22;8581;47.334;11.190;2023-05-10T08:39:52;11.10;99.90
16929;DHT22;8581;47.334;11.190;2023-05-10T08:42:24;11.10;99.90
16929;DHT22;8581;47.334;11.190;2023-05-10T08:44:55;11.10;99.90
16929;DHT22;8581;47.334;11.190;2023-05-10T08:47:27;10.60;99.90
16929;DHT22;8581;47.334;11.190;2023-05-10T08:49:58;10.60;99.90
16929;DHT22;8581;47.334;11.190;2023-05-10T08:52:30;11.00;99.90
16929;DHT22;8581;47.334;11.190;2023-05-10T08:55:02;11.10;99.90
16929;DHT22;8581;47.334;11.190;2023-05-10T08:57:33;11.00;99.90
16929;DHT22;8581;47.334;11.190;2023-05-10T09:00:06;11.10;99.90
16929;DHT22;8581;47.334;11.190;2023-05-10T09:02:38;11.40;99.90
16929;DHT22;8581;47.334;11.190;2023-05-10T09:05:09;11.40;99.90
16929;DHT22;8581;47.334;11.190;2023-05-10T09:07:41;11.60;99.90
16929;DHT22;8581;47.334;11.190;2023-05-10T09:10:13;12.10;99.90
16929;DHT22;8581;47.334;11.190;2023-05-10T09:12:44;12.10;99.90
16929;DHT22;8581;47.334;11.190;2023-05-10T09:15:16;12.70;99.90
16929;DHT22;8581;47.334;11.190;2023-05-10T09:17:47;13.00;99.90
16929;DHT22;8581;47.334;11.190;2023-05-10T09:20:19;12.50;99.90
16929;DHT22;8581;47.334;11.190;2023-05-10T09:22:51;12.50;99.90
16929;DHT22;8581;47.334;11.190;2023-05-10T09:25:22;12.80;99.90
16929;DHT22;8581;47.334;11.190;2023-05-10T09:27:54;13.00;99.90
16929;DHT22;8581;47.334;11.190;2023-05-10T09:30:26;13.20;99.90
16929;DHT22;8581;47.334;11.190;2023-05-10T09:32:58;13.30;99.90
16929;DHT22;8581;47.334;11.190;2023-05-10T09:35:29;13.30;99.90
16929;DHT22;8581;47.334;11.190;2023-05-10T09:38:02;13.10;99.90
16929;DHT22;8581;47.334;11.190;2023-05-10T09:40:32;12.90;99.90
16929;DHT22;8581;47.334;11.190;2023-05-10T09:43:05;13.00;99.90
16929;DHT22;8581;47.334;11.190;2023-05-10T09:45:35;12.60;99.90
16929;DHT22;8581;47.334;11.190;2023-05-10T09:48:09;12.50;99.90
16929;DHT22;8581;47.334;11.190;2023-05-10T09:50:40;12.20;99.90
16929;DHT22;8581;47.334;11.190;2023-05-10T09:53:14;12.20;99.90
16929;DHT22;8581;47.334;11.190;2023-05-10T09:55:44;12.30;99.90
16929;DHT22;8581;47.334;11.190;2023-05-10T09:58:15;12.20;99.90
16929;DHT22;8581;47.334;11.190;2023-05-10T10:00:47;12.00;99.90
16929;DHT22;8581;47.334;11.190;2023-05-10T10:03:20;12.50;99.90
16929;DHT22;8581;47.334;11.190;2023-05-10T10:05:51;12.40;99.90
16929;DHT22;8581;47.334;11.190;2023-05-10T10:08:22;12.40;99.90
16929;DHT22;8581;47.334;11.190;2023-05-10T10:10:54;12.50;99.90
16929;DHT22;8581;47.334;11.190;2023-05-10T10:13:26;12.50;99.90
16929;DHT22;8581;47.334;11.190;2023-05-10T10:15:57;12.30;99.90
16929;DHT22;8581;47.334;11.190;2023-05-10T10:18:30;11.90;99.90
16929;DHT22;8581;47.334;11.190;2023-05-10T10:21:00;11.80;99.90
16929;DHT22;8581;47.334;11.190;2023-05-10T10:23:32;11.60;99.90
16929;DHT22;8581;47.334;11.190;2023-05-10T10:26:04;11.30;99.90
16929;DHT22;8581;47.334;11.190;2023-05-10T10:28:55;11.20;99.90
16929;DHT22;8581;47.334;11.190;2023-05-10T10:31:24;11.40;99.90
16929;DHT22;8581;47.334;11.190;2023-05-10T10:33:59;11.30;99.90
16929;DHT22;8581;47.334;11.190;2023-05-10T10:36:28;11.30;99.90
16929;DHT22;8581;47.334;11.190;2023-05-10T10:39:00;11.30;99.90
16929;DHT22;8581;47.334;11.190;2023-05-10T10:41:35;11.40;99.90
16929;DHT22;8581;47.334;11.190;2023-05-10T10:50:13;11.80;99.90
16929;DHT22;8581;47.334;11.190;2023-05-10T10:52:45;11.90;99.90
16929;DHT22;8581;47.334;11.190;2023-05-10T10:55:18;12.20;99.90
16929;DHT22;8581;47.334;11.190;2023-05-10T10:57:50;12.60;99.90
16929;DHT22;8581;47.334;11.190;2023-05-10T11:00:23;12.70;99.90
16929;DHT22;8581;47.334;11.190;2023-05-10T11:02:58;12.90;99.90
16929;DHT22;8581;47.334;11.190;2023-05-10T11:05:35;12.90;99.90
16929;DHT22;8581;47.334;11.190;2023-05-10T11:08:13;13.10;99.90
16929;DHT22;8581;47.334;11.190;2023-05-10T11:10:50;13.20;99.90
16929;DHT22;8581;47.334;11.190;2023-05-10T11:13:30;13.30;99.90
16929;DHT22;8581;47.334;11.190;2023-05-10T11:16:11;13.70;99.90
16929;DHT22;8581;47.334;11.190;2023-05-10T11:18:58;13.60;99.90
16929;DHT22;8581;47.334;11.190;2023-05-10T11:21:29;13.70;99.90
16929;DHT22;8581;47.334;11.190;2023-05-10T11:24:00;13.50;99.90
16929;DHT22;8581;47.334;11.190;2023-05-10T11:26:32;13.60;99.90
16929;DHT22;8581;47.334;11.190;2023-05-10T11:29:03;13.50;99.90
16929;DHT22;8581;47.334;11.190;2023-05-10T11:31:35;13.30;99.90
16929;DHT22;8581;47.334;11.190;2023-05-10T11:34:06;13.70;99.90
16929;DHT22;8581;47.334;11.190;2023-05-10T11:36:38;14.00;99.90
16929;DHT22;8581;47.334;11.190;2023-05-10T11:39:09;13.30;99.90
16929;DHT22;8581;47.334;11.190;2023-05-10T11:41:41;13.60;99.90
16929;DHT22;8581;47.334;11.190;2023-05-10T11:44:13;13.70;99.90
16929;DHT22;8581;47.334;11.190;2023-05-10T11:46:44;13.50;99.90
16929;DHT22;8581;47.334;11.190;2023-05-10T11:49:17;13.20;99.90
16929;DHT22;8581;47.334;11.190;2023-05-10T11:51:48;12.50;99.90
16929;DHT22;8581;47.334;11.190;2023-05-10T11:54:20;12.50;99.90
16929;DHT22;8581;47.334;11.190;2023-05-10T11:56:52;12.90;99.90
16929;DHT22;8581;47.334;11.190;2023-05-10T11:59:23;13.10;99.90
16929;DHT22;8581;47.334;11.190;2023-05-10T12:01:55;12.70;99.90
16929;DHT22;8581;47.334;11.190;2023-05-10T12:04:26;12.90;99.90
16929;DHT22;8581;47.334;11.190;2023-05-10T12:06:59;12.60;99.90
16929;DHT22;8581;47.334;11.190;2023-05-10T12:09:31;12.70;99.90
16929;DHT22;8581;47.334;11.190;2023-05-10T12:12:02;12.60;99.90
16929;DHT22;8581;47.334;11.190;2023-05-10T12:14:34;12.50;99.90
16929;DHT22;8581;47.334;11.190;2023-05-10T12:17:06;12.20;99.90
16929;DHT22;8581;47.334;11.190;2023-05-10T12:19:37;12.20;99.90
16929;DHT22;8581;47.334;11.190;2023-05-10T12:22:09;12.00;99.90
16929;DHT22;8581;47.334;11.190;2023-05-10T12:24:40;12.00;99.90
16929;DHT22;8581;47.334;11.190;2023-05-10T12:27:12;12.10;99.90
16929;DHT22;8581;47.334;11.190;2023-05-10T12:29:44;12.00;99.90
16929;DHT22;8581;47.334;11.190;2023-05-10T12:32:15;11.80;99.90
16929;DHT22;8581;47.334;11.190;2023-05-10T12:34:47;12.00;99.90
16929;DHT22;8581;47.334;11.190;2023-05-10T12:37:23;12.00;99.90
16929;DHT22;8581;47.334;11.190;2023-05-10T12:39:50;11.90;99.90
16929;DHT22;8581;47.334;11.190;2023-05-10T12:42:22;11.80;99.90
16929;DHT22;8581;47.334;11.190;2023-05-10T12:44:55;12.10;99.90
16929;DHT22;8581;47.334;11.190;2023-05-10T12:47:26;12.10;99.90
16929;DHT22;8581;47.334;11.190;2023-05-10T12:49:57;11.80;99.90
16929;DHT22;8581;47.334;11.190;2023-05-10T12:52:29;11.60;99.90
16929;DHT22;8581;47.334;11.190;2023-05-10T12:55:01;11.60;99.90
16929;DHT22;8581;47.334;11.190;2023-05-10T12:57:32;11.30;99.90
16929;DHT22;8581;47.334;11.190;2023-05-10T13:00:05;11.20;99.90
16929;DHT22;8581;47.334;11.190;2023-05-10T13:02:37;11.30;99.90
16929;DHT22;8581;47.334;11.190;2023-05-10T13:05:09;11.50;99.90
16929;DHT22;8581;47.334;11.190;2023-05-10T13:07:40;11.40;99.90
16929;DHT22;8581;47.334;11.190;2023-05-10T13:10:12;11.60;99.90
16929;DHT22;8581;47.334;11.190;2023-05-10T13:12:43;11.60;99.90
16929;DHT22;8581;47.334;11.190;2023-05-10T13:15:15;11.30;99.90
16929;DHT22;8581;47.334;11.190;2023-05-10T13:17:47;11.50;99.90
16929;DHT22;8581;47.334;11.190;2023-05-10T13:20:18;11.60;99.90
16929;DHT22;8581;47.334;11.190;2023-05-10T13:22:50;11.50;99.90
16929;DHT22;8581;47.334;11.190;2023-05-10T13:25:21;11.50;99.90
16929;DHT22;8581;47.334;11.190;2023-05-10T13:27:53;11.60;99.90
16929;DHT22;8581;47.334;11.190;2023-05-10T13:30:25;11.80;99.90
16929;DHT22;8581;47.334;11.190;2023-05-10T13:32:56;12.10;99.90
16929;DHT22;8581;47.334;11.190;2023-05-10T13:35:28;12.10;99.90
16929;DHT22;8581;47.334;11.190;2023-05-10T13:37:59;12.40;99.90
16929;DHT22;8581;47.334;11.190;2023-05-10T13:40:31;12.40;99.90
16929;DHT22;8581;47.334;11.190;2023-05-10T13:43:03;12.30;99.90
16929;DHT22;8581;47.334;11.190;2023-05-10T13:45:34;12.00;99.90
16929;DHT22;8581;47.334;11.190;2023-05-10T13:48:06;11.90;99.90
16929;DHT22;8581;47.334;11.190;2023-05-10T13:50:37;12.00;99.90
16929;DHT22;8581;47.334;11.190;2023-05-10T13:53:09;11.80;99.90
16929;DHT22;8581;47.334;11.190;2023-05-10T13:55:41;11.40;99.90
16929;DHT22;8581;47.334;11.190;2023-05-10T13:58:12;10.90;99.90
16929;DHT22;8581;47.334;11.190;2023-05-10T14:00:44;10.90;99.90
16929;DHT22;8581;47.334;11.190;2023-05-10T14:03:15;11.10;99.90
16929;DHT22;8581;47.334;11.190;2023-05-10T14:05:47;10.90;99.90
16929;DHT22;8581;47.334;11.190;2023-05-10T14:08:19;10.90;99.90
16929;DHT22;8581;47.334;11.190;2023-05-10T14:10:50;10.90;99.90
16929;DHT22;8581;47.334;11.190;2023-05-10T14:13:22;10.60;99.90
16929;DHT22;8581;47.334;11.190;2023-05-10T14:15:54;10.90;99.90
16929;DHT22;8581;47.334;11.190;2023-05-10T14:18:26;10.80;99.90
16929;DHT22;8581;47.334;11.190;2023-05-10T14:20:57;10.60;99.90
16929;DHT22;8581;47.334;11.190;2023-05-10T14:23:28;10.70;99.90
16929;DHT22;8581;47.334;11.190;2023-05-10T14:26:00;10.70;99.90
16929;DHT22;8581;47.334;11.190;2023-05-10T14:28:32;10.60;99.90
16929;DHT22;8581;47.334;11.190;2023-05-10T14:31:03;10.80;99.90
16929;DHT22;8581;47.334;11.190;2023-05-10T14:33:35;10.70;99.90
16929;DHT22;8581;47.334;11.190;2023-05-10T14:36:07;10.70;99.90
16929;DHT22;8581;47.334;11.190;2023-05-10T14:38:39;10.80;99.90
16929;DHT22;8581;47.334;11.190;2023-05-10T14:41:10;10.50;99.90
16929;DHT22;8581;47.334;11.190;2023-05-10T14:43:42;10.50;99.90
16929;DHT22;8581;47.334;11.190;2023-05-10T14:46:13;10.00;99.90
16929;DHT22;8581;47.334;11.190;2023-05-10T14:48:45;9.90;99.90
16929;DHT22;8581;47.334;11.190;2023-05-10T14:51:16;9.80;99.90
16929;DHT22;8581;47.334;11.190;2023-05-10T14:53:48;10.00;99.90
16929;DHT22;8581;47.334;11.190;2023-05-10T14:56:20;9.90;99.90
16929;DHT22;8581;47.334;11.190;2023-05-10T14:58:51;10.00;99.90
16929;DHT22;8581;47.334;11.190;2023-05-10T15:01:23;10.20;99.90
16929;DHT22;8581;47.334;11.190;2023-05-10T15:03:54;10.10;99.90
16929;DHT22;8581;47.334;11.190;2023-05-10T15:06:34;9.70;99.90
16929;DHT22;8581;47.334;11.190;2023-05-10T15:09:05;9.70;99.90
16929;DHT22;8581;47.334;11.190;2023-05-10T15:11:37;9.80;99.90
16929;DHT22;8581;47.334;11.190;2023-05-10T15:14:08;10.20;99.90
16929;DHT22;8581;47.334;11.190;2023-05-10T15:16:40;10.30;99.90
16929;DHT22;8581;47.334;11.190;2023-05-10T15:19:12;10.40;99.90
16929;DHT22;8581;47.334;11.190;2023-05-10T15:21:43;10.50;99.90
16929;DHT22;8581;47.334;11.190;2023-05-10T15:24:15;10.20;99.90
16929;DHT22;8581;47.334;11.190;2023-05-10T15:26:46;10.20;99.90
16929;DHT22;8581;47.334;11.190;2023-05-10T15:29:18;10.40;99.90
16929;DHT22;8581;47.334;11.190;2023-05-10T15:31:50;10.30;99.90
16929;DHT22;8581;47.334;11.190;2023-05-10T15:34:21;10.20;99.90
16929;DHT22;8581;47.334;11.190;2023-05-10T15:36:53;10.10;99.90
16929;DHT22;8581;47.334;11.190;2023-05-10T15:39:24;10.10;99.90
16929;DHT22;8581;47.334;11.190;2023-05-10T15:41:56;9.80;99.90
16929;DHT22;8581;47.334;11.190;2023-05-10T15:44:28;9.80;99.90
16929;DHT22;8581;47.334;11.190;2023-05-10T15:46:59;9.90;99.90
16929;DHT22;8581;47.334;11.190;2023-05-10T15:49:31;9.70;99.90
16929;DHT22;8581;47.334;11.190;2023-05-10T15:52:02;9.30;99.90
16929;DHT22;8581;47.334;11.190;2023-05-10T15:54:34;9.20;99.90
16929;DHT22;8581;47.334;11.190;2023-05-10T15:57:06;9.30;99.90
16929;DHT22;8581;47.334;11.190;2023-05-10T15:59:37;9.20;99.90
16929;DHT22;8581;47.334;11.190;2023-05-10T16:02:09;9.30;99.90
16929;DHT22;8581;47.334;11.190;2023-05-10T16:04:41;9.30;99.90
16929;DHT22;8581;47.334;11.190;2023-05-10T16:07:13;9.40;99.90
16929;DHT22;8581;47.334;11.190;2023-05-10T16:09:45;9.10;99.90
16929;DHT22;8581;47.334;11.190;2023-05-10T16:12:16;8.90;99.90
16929;DHT22;8581;47.334;11.190;2023-05-10T16:14:48;8.90;99.90
16929;DHT22;8581;47.334;11.190;2023-05-10T16:17:19;8.90;99.90